sensor_id;sensor_type;location;lat;lon;timestamp;temperature;humidity
19385;DHT22;9828;54.122;17.974;2023-12-28T00:02:29;1.60;99.90
19385;DHT22;9828;54.122;17.974;2023-12-28T00:07:50;1.70;99.90
19385;DHT22;9828;54.122;17.974;2023-12-28T00:13:18;1.70;99.90
19385;DHT22;9828;54.122;17.974;2023-12-28T00:18:39;1.70;1.00
19385;DHT22;9828;54.122;17.974;2023-12-28T00:24:00;1.60;1.00
19385;DHT22;9828;54.122;17.974;2023-12-28T00:29:21;1.60;1.00
19385;DHT22;9828;54.122;17.974;2023-12-28T00:34:43;1.50;99.90
19385;DHT22;9828;54.122;17.974;2023-12-28T00:40:05;1.50;99.90
19385;DHT22;9828;54.122;17.974;2023-12-28T00:45:26;1.40;99.90
19385;DHT22;9828;54.122;17.974;2023-12-28T00:50:48;1.40;1.00
19385;DHT22;9828;54.122;17.974;2023-12-28T00:56:10;1.40;1.00
19385;DHT22;9828;54.122;17.974;2023-12-28T01:01:31;1.40;1.00
19385;DHT22;9828;54.122;17.974;2023-12-28T01:06:52;1.40;1.00
19385;DHT22;9828;54.122;17.974;2023-12-28T01:12:14;1.40;1.00
19385;DHT22;9828;54.122;17.974;2023-12-28T01:17:35;1.50;1.00
19385;DHT22;9828;54.122;17.974;2023-12-28T01:22:57;1.50;1.00
19385;DHT22;9828;54.122;17.974;2023-12-28T01:28:18;1.50;1.00
19385;DHT22;9828;54.122;17.974;2023-12-28T01:33:40;1.40;1.00
19385;DHT22;9828;54.122;17.974;2023-12-28T01:39:01;1.40;1.00
19385;DHT22;9828;54.122;17.974;2023-12-28T01:44:23;1.50;1.00
19385;DHT22;9828;54.122;17.974;2023-12-28T01:49:44;1.40;1.00
19385;DHT22;9828;54.122;17.974;2023-12-28T01:55:07;1.40;1.00
19385;DHT22;9828;54.122;17.974;2023-12-28T02:00:29;1.40;1.00
19385;DHT22;9828;54.122;17.974;2023-12-28T02:05:52;1.50;1.00
19385;DHT22;9828;54.122;17.974;2023-12-28T02:11:14;1.50;1.00
19385;DHT22;9828;54.122;17.974;2023-12-28T02:16:39;1.50;1.00
19385;DHT22;9828;54.122;17.974;2023-12-28T02:22:04;1.50;1.00
19385;DHT22;9828;54.122;17.974;2023-12-28T02:27:26;1.50;1.00
19385;DHT22;9828;54.122;17.974;2023-12-28T02:38:36;1.50;1.00
19385;DHT22;9828;54.122;17.974;2023-12-28T02:43:59;1.50;1.00
19385;DHT22;9828;54.122;17.974;2023-12-28T02:49:20;1.50;1.00
19385;DHT22;9828;54.122;17.974;2023-12-28T02:54:42;1.60;1.00
19385;DHT22;9828;54.122;17.974;2023-12-28T03:00:07;1.60;1.00
19385;DHT22;9828;54.122;17.974;2023-12-28T03:05:30;1.70;1.00
19385;DHT22;9828;54.122;17.974;2023-12-28T03:10:51;1.70;99.90
19385;DHT22;9828;54.122;17.974;2023-12-28T03:16:14;1.70;99.90
19385;DHT22;9828;54.122;17.974;2023-12-28T03:21:39;1.70;99.90
19385;DHT22;9828;54.122;17.974;2023-12-28T03:27:01;1.70;99.90
19385;DHT22;9828;54.122;17.974;2023-12-28T03:32:23;1.90;99.90
19385;DHT22;9828;54.122;17.974;2023-12-28T03:37:45;1.80;1.00
19385;DHT22;9828;54.122;17.974;2023-12-28T03:43:06;1.90;1.00
19385;DHT22;9828;54.122;17.974;2023-12-28T03:48:28;1.90;1.00
19385;DHT22;9828;54.122;17.974;2023-12-28T03:53:49;1.90;1.00
19385;DHT22;9828;54.122;17.974;2023-12-28T03:59:11;1.80;99.90
19385;DHT22;9828;54.122;17.974;2023-12-28T04:04:32;1.80;1.00
19385;DHT22;9828;54.122;17.974;2023-12-28T04:09:53;1.70;99.90
19385;DHT22;9828;54.122;17.974;2023-12-28T04:15:15;1.60;1.00
19385;DHT22;9828;54.122;17.974;2023-12-28T04:20:37;1.70;1.00
19385;DHT22;9828;54.122;17.974;2023-12-28T04:25:58;1.70;1.00
19385;DHT22;9828;54.122;17.974;2023-12-28T04:31:19;1.60;99.90
19385;DHT22;9828;54.122;17.974;2023-12-28T04:36:41;1.70;99.90
19385;DHT22;9828;54.122;17.974;2023-12-28T04:42:04;1.70;1.00
19385;DHT22;9828;54.122;17.974;2023-12-28T04:47:26;1.60;1.00
19385;DHT22;9828;54.122;17.974;2023-12-28T04:52:47;1.60;1.00
19385;DHT22;9828;54.122;17.974;2023-12-28T04:58:10;1.60;39.10
19385;DHT22;9828;54.122;17.974;2023-12-28T05:03:32;1.60;19.70
19385;DHT22;9828;54.122;17.974;2023-12-28T05:08:54;1.70;1.00
19385;DHT22;9828;54.122;17.974;2023-12-28T05:14:15;1.70;1.00
19385;DHT22;9828;54.122;17.974;2023-12-28T05:19:36;1.80;99.90
19385;DHT22;9828;54.122;17.974;2023-12-28T05:24:58;1.80;99.90
19385;DHT22;9828;54.122;17.974;2023-12-28T05:30:19;1.80;1.00
19385;DHT22;9828;54.122;17.974;2023-12-28T05:35:40;1.80;1.00
19385;DHT22;9828;54.122;17.974;2023-12-28T05:41:02;1.90;99.90
19385;DHT22;9828;54.122;17.974;2023-12-28T05:46:23;2.00;99.90
19385;DHT22;9828;54.122;17.974;2023-12-28T05:51:44;2.10;1.00
19385;DHT22;9828;54.122;17.974;2023-12-28T05:57:06;2.20;99.90
19385;DHT22;9828;54.122;17.974;2023-12-28T06:02:27;2.20;99.90
19385;DHT22;9828;54.122;17.974;2023-12-28T06:07:49;2.20;99.90
19385;DHT22;9828;54.122;17.974;2023-12-28T06:13:10;2.30;99.90
19385;DHT22;9828;54.122;17.974;2023-12-28T06:18:31;2.40;1.00
19385;DHT22;9828;54.122;17.974;2023-12-28T06:23:53;2.50;1.00
19385;DHT22;9828;54.122;17.974;2023-12-28T06:29:14;2.60;1.00
19385;DHT22;9828;54.122;17.974;2023-12-28T06:34:35;2.60;1.00
19385;DHT22;9828;54.122;17.974;2023-12-28T06:39:56;2.70;1.00
19385;DHT22;9828;54.122;17.974;2023-12-28T06:45:17;2.70;1.00
19385;DHT22;9828;54.122;17.974;2023-12-28T06:50:39;2.80;99.90
19385;DHT22;9828;54.122;17.974;2023-12-28T06:56:00;2.90;1.00
19385;DHT22;9828;54.122;17.974;2023-12-28T07:01:21;2.90;99.90
19385;DHT22;9828;54.122;17.974;2023-12-28T07:06:43;3.00;99.90
19385;DHT22;9828;54.122;17.974;2023-12-28T07:12:04;3.10;1.00
19385;DHT22;9828;54.122;17.974;2023-12-28T07:17:26;3.10;1.00
19385;DHT22;9828;54.122;17.974;2023-12-28T07:22:47;3.10;99.90
19385;DHT22;9828;54.122;17.974;2023-12-28T07:28:09;3.10;1.00
19385;DHT22;9828;54.122;17.974;2023-12-28T07:33:30;3.10;1.00
19385;DHT22;9828;54.122;17.974;2023-12-28T07:38:51;3.10;99.90
19385;DHT22;9828;54.122;17.974;2023-12-28T07:44:12;3.10;99.90
19385;DHT22;9828;54.122;17.974;2023-12-28T07:49:34;3.20;99.90
19385;DHT22;9828;54.122;17.974;2023-12-28T07:54:55;3.30;1.00
19385;DHT22;9828;54.122;17.974;2023-12-28T08:00:16;3.30;1.00
19385;DHT22;9828;54.122;17.974;2023-12-28T08:05:38;3.30;1.00
19385;DHT22;9828;54.122;17.974;2023-12-28T08:10:59;3.40;99.90
19385;DHT22;9828;54.122;17.974;2023-12-28T08:16:20;3.40;1.00
19385;DHT22;9828;54.122;17.974;2023-12-28T08:21:42;3.40;99.90
19385;DHT22;9828;54.122;17.974;2023-12-28T08:27:03;3.60;99.90
19385;DHT22;9828;54.122;17.974;2023-12-28T08:32:25;3.70;99.90
19385;DHT22;9828;54.122;17.974;2023-12-28T08:37:46;3.80;24.30
19385;DHT22;9828;54.122;17.974;2023-12-28T08:43:07;3.80;1.00
19385;DHT22;9828;54.122;17.974;2023-12-28T08:48:28;3.70;82.20
19385;DHT22;9828;54.122;17.974;2023-12-28T08:53:50;3.70;1.00
19385;DHT22;9828;54.122;17.974;2023-12-28T08:59:11;3.80;99.90
19385;DHT22;9828;54.122;17.974;2023-12-28T09:04:33;3.90;99.90
19385;DHT22;9828;54.122;17.974;2023-12-28T09:09:54;3.90;1.00
19385;DHT22;9828;54.122;17.974;2023-12-28T09:15:16;4.00;1.00
19385;DHT22;9828;54.122;17.974;2023-12-28T09:20:37;4.10;1.00
19385;DHT22;9828;54.122;17.974;2023-12-28T09:26:02;4.30;1.00
19385;DHT22;9828;54.122;17.974;2023-12-28T09:31:27;4.30;1.00
19385;DHT22;9828;54.122;17.974;2023-12-28T09:36:48;4.50;1.00
19385;DHT22;9828;54.122;17.974;2023-12-28T09:42:16;4.50;1.00
19385;DHT22;9828;54.122;17.974;2023-12-28T09:47:38;4.70;1.00
19385;DHT22;9828;54.122;17.974;2023-12-28T09:52:59;4.70;1.00
19385;DHT22;9828;54.122;17.974;2023-12-28T09:58:21;4.80;1.00
19385;DHT22;9828;54.122;17.974;2023-12-28T10:03:43;5.00;1.00
19385;DHT22;9828;54.122;17.974;2023-12-28T10:09:06;5.00;1.00
19385;DHT22;9828;54.122;17.974;2023-12-28T10:14:29;5.00;1.00
19385;DHT22;9828;54.122;17.974;2023-12-28T10:19:50;5.10;1.00
19385;DHT22;9828;54.122;17.974;2023-12-28T10:25:12;5.20;1.00
19385;DHT22;9828;54.122;17.974;2023-12-28T10:30:33;5.30;1.00
19385;DHT22;9828;54.122;17.974;2023-12-28T10:35:58;5.40;1.00
19385;DHT22;9828;54.122;17.974;2023-12-28T10:41:22;5.50;99.90
19385;DHT22;9828;54.122;17.974;2023-12-28T10:46:43;5.50;99.90
19385;DHT22;9828;54.122;17.974;2023-12-28T10:52:06;5.60;99.90
19385;DHT22;9828;54.122;17.974;2023-12-28T10:57:40;5.60;99.90
19385;DHT22;9828;54.122;17.974;2023-12-28T11:03:09;5.70;1.00
19385;DHT22;9828;54.122;17.974;2023-12-28T11:08:32;5.80;99.90
19385;DHT22;9828;54.122;17.974;2023-12-28T11:13:55;5.80;99.90
19385;DHT22;9828;54.122;17.974;2023-12-28T11:19:17;5.80;99.90
19385;DHT22;9828;54.122;17.974;2023-12-28T11:24:39;5.80;1.00
19385;DHT22;9828;54.122;17.974;2023-12-28T11:30:01;5.70;1.00
19385;DHT22;9828;54.122;17.974;2023-12-28T11:35:37;5.70;1.00
19385;DHT22;9828;54.122;17.974;2023-12-28T11:41:04;5.80;1.00
19385;DHT22;9828;54.122;17.974;2023-12-28T11:46:25;5.90;99.90
19385;DHT22;9828;54.122;17.974;2023-12-28T11:51:54;6.30;99.90
19385;DHT22;9828;54.122;17.974;2023-12-28T11:57:16;6.60;1.00
19385;DHT22;9828;54.122;17.974;2023-12-28T12:02:38;7.20;99.90
19385;DHT22;9828;54.122;17.974;2023-12-28T12:08:09;7.90;99.90
19385;DHT22;9828;54.122;17.974;2023-12-28T12:13:34;8.40;1.00
19385;DHT22;9828;54.122;17.974;2023-12-28T12:18:57;8.30;1.00
19385;DHT22;9828;54.122;17.974;2023-12-28T12:24:20;7.80;1.00
19385;DHT22;9828;54.122;17.974;2023-12-28T12:29:41;7.60;83.40
19385;DHT22;9828;54.122;17.974;2023-12-28T12:35:03;7.40;1.00
19385;DHT22;9828;54.122;17.974;2023-12-28T12:40:25;7.30;99.90
19385;DHT22;9828;54.122;17.974;2023-12-28T12:45:46;7.10;1.00
19385;DHT22;9828;54.122;17.974;2023-12-28T12:51:08;7.10;38.20
19385;DHT22;9828;54.122;17.974;2023-12-28T12:56:30;7.00;1.00
19385;DHT22;9828;54.122;17.974;2023-12-28T13:01:52;7.00;99.90
19385;DHT22;9828;54.122;17.974;2023-12-28T13:07:14;6.90;1.00
19385;DHT22;9828;54.122;17.974;2023-12-28T13:12:35;6.80;99.90
19385;DHT22;9828;54.122;17.974;2023-12-28T13:17:57;6.80;99.90
19385;DHT22;9828;54.122;17.974;2023-12-28T13:23:18;6.70;30.90
19385;DHT22;9828;54.122;17.974;2023-12-28T13:28:40;6.70;99.90
19385;DHT22;9828;54.122;17.974;2023-12-28T13:34:01;6.60;99.90
19385;DHT22;9828;54.122;17.974;2023-12-28T13:39:22;6.60;99.90
19385;DHT22;9828;54.122;17.974;2023-12-28T13:44:44;6.50;1.00
19385;DHT22;9828;54.122;17.974;2023-12-28T13:50:05;6.50;1.00
19385;DHT22;9828;54.122;17.974;2023-12-28T13:55:27;6.50;1.00
19385;DHT22;9828;54.122;17.974;2023-12-28T14:00:49;6.50;99.90
19385;DHT22;9828;54.122;17.974;2023-12-28T14:06:10;6.40;1.00
19385;DHT22;9828;54.122;17.974;2023-12-28T14:11:31;6.40;99.90
19385;DHT22;9828;54.122;17.974;2023-12-28T14:16:53;6.30;1.00
19385;DHT22;9828;54.122;17.974;2023-12-28T14:22:14;6.20;90.40
19385;DHT22;9828;54.122;17.974;2023-12-28T14:27:36;6.10;1.00
19385;DHT22;9828;54.122;17.974;2023-12-28T14:32:57;6.10;1.00
19385;DHT22;9828;54.122;17.974;2023-12-28T14:38:19;6.10;1.00
19385;DHT22;9828;54.122;17.974;2023-12-28T14:43:40;6.00;1.00
19385;DHT22;9828;54.122;17.974;2023-12-28T14:49:01;5.90;99.90
19385;DHT22;9828;54.122;17.974;2023-12-28T14:54:24;5.90;99.90
19385;DHT22;9828;54.122;17.974;2023-12-28T14:59:45;5.90;99.90
19385;DHT22;9828;54.122;17.974;2023-12-28T15:05:06;5.90;99.90
19385;DHT22;9828;54.122;17.974;2023-12-28T15:10:31;5.80;99.90
19385;DHT22;9828;54.122;17.974;2023-12-28T15:15:53;5.90;99.90
19385;DHT22;9828;54.122;17.974;2023-12-28T15:21:15;5.90;99.90
19385;DHT22;9828;54.122;17.974;2023-12-28T15:26:36;5.90;99.90
19385;DHT22;9828;54.122;17.974;2023-12-28T15:31:57;5.80;99.90
19385;DHT22;9828;54.122;17.974;2023-12-28T15:37:19;5.80;99.90
19385;DHT22;9828;54.122;17.974;2023-12-28T15:42:40;5.90;99.90
19385;DHT22;9828;54.122;17.974;2023-12-28T15:48:01;5.90;99.90
19385;DHT22;9828;54.122;17.974;2023-12-28T15:53:23;5.90;99.90
19385;DHT22;9828;54.122;17.974;2023-12-28T15:58:44;5.90;99.90
19385;DHT22;9828;54.122;17.974;2023-12-28T16:04:06;5.80;99.90
19385;DHT22;9828;54.122;17.974;2023-12-28T16:09:28;5.80;99.90
19385;DHT22;9828;54.122;17.974;2023-12-28T16:14:51;5.90;99.90
19385;DHT22;9828;54.122;17.974;2023-12-28T16:20:13;5.80;99.90
19385;DHT22;9828;54.122;17.974;2023-12-28T16:25:34;5.80;99.90
19385;DHT22;9828;54.122;17.974;2023-12-28T16:30:55;5.80;99.90
19385;DHT22;9828;54.122;17.974;2023-12-28T16:36:16;5.90;99.90
19385;DHT22;9828;54.122;17.974;2023-12-28T16:41:38;5.90;99.90
19385;DHT22;9828;54.122;17.974;2023-12-28T16:47:01;6.00;79.00
19385;DHT22;9828;54.122;17.974;2023-12-28T16:52:23;6.10;1.00
19385;DHT22;9828;54.122;17.974;2023-12-28T16:57:45;6.10;1.00
19385;DHT22;9828;54.122;17.974;2023-12-28T17:03:06;6.10;1.00
19385;DHT22;9828;54.122;17.974;2023-12-28T17:08:27;6.20;49.70
19385;DHT22;9828;54.122;17.974;2023-12-28T17:13:48;6.20;1.00
19385;DHT22;9828;54.122;17.974;2023-12-28T17:19:10;6.30;99.90
19385;DHT22;9828;54.122;17.974;2023-12-28T17:24:40;6.30;1.00
19385;DHT22;9828;54.122;17.974;2023-12-28T17:30:07;6.20;64.20
19385;DHT22;9828;54.122;17.974;2023-12-28T17:35:29;6.20;99.90
19385;DHT22;9828;54.122;17.974;2023-12-28T17:40:51;6.10;1.00
19385;DHT22;9828;54.122;17.974;2023-12-28T17:46:22;6.00;1.00
19385;DHT22;9828;54.122;17.974;2023-12-28T17:51:45;6.00;1.00
19385;DHT22;9828;54.122;17.974;2023-12-28T17:57:07;5.90;1.00
19385;DHT22;9828;54.122;17.974;2023-12-28T18:02:28;6.00;30.00
19385;DHT22;9828;54.122;17.974;2023-12-28T18:07:50;5.90;1.00
19385;DHT22;9828;54.122;17.974;2023-12-28T18:13:11;5.90;99.90
19385;DHT22;9828;54.122;17.974;2023-12-28T18:18:32;5.80;99.90
19385;DHT22;9828;54.122;17.974;2023-12-28T18:23:53;5.80;99.90
19385;DHT22;9828;54.122;17.974;2023-12-28T18:29:15;5.80;99.90
19385;DHT22;9828;54.122;17.974;2023-12-28T18:34:36;5.80;1.00
19385;DHT22;9828;54.122;17.974;2023-12-28T18:39:58;5.90;1.00
19385;DHT22;9828;54.122;17.974;2023-12-28T18:45:19;5.90;99.90
19385;DHT22;9828;54.122;17.974;2023-12-28T18:50:41;5.90;1.00
19385;DHT22;9828;54.122;17.974;2023-12-28T18:56:02;6.00;1.00
19385;DHT22;9828;54.122;17.974;2023-12-28T19:01:23;6.00;99.90
19385;DHT22;9828;54.122;17.974;2023-12-28T19:06:46;6.00;1.00
19385;DHT22;9828;54.122;17.974;2023-12-28T19:12:07;6.00;1.00
19385;DHT22;9828;54.122;17.974;2023-12-28T19:17:29;6.00;1.00
19385;DHT22;9828;54.122;17.974;2023-12-28T19:22:51;6.00;99.90
19385;DHT22;9828;54.122;17.974;2023-12-28T19:28:12;6.10;99.90
19385;DHT22;9828;54.122;17.974;2023-12-28T19:33:33;6.10;1.00
19385;DHT22;9828;54.122;17.974;2023-12-28T19:38:55;6.10;90.90
19385;DHT22;9828;54.122;17.974;2023-12-28T19:44:16;6.10;1.00
19385;DHT22;9828;54.122;17.974;2023-12-28T19:49:38;6.10;1.00
19385;DHT22;9828;54.122;17.974;2023-12-28T19:54:59;6.10;1.00
19385;DHT22;9828;54.122;17.974;2023-12-28T20:00:20;6.10;1.00
19385;DHT22;9828;54.122;17.974;2023-12-28T20:05:42;6.20;1.00
19385;DHT22;9828;54.122;17.974;2023-12-28T20:11:03;6.20;71.90
19385;DHT22;9828;54.122;17.974;2023-12-28T20:16:25;6.20;1.00
19385;DHT22;9828;54.122;17.974;2023-12-28T20:21:46;6.30;1.00
19385;DHT22;9828;54.122;17.974;2023-12-28T20:27:07;6.40;1.00
19385;DHT22;9828;54.122;17.974;2023-12-28T20:32:28;6.40;36.90
19385;DHT22;9828;54.122;17.974;2023-12-28T20:37:49;6.40;90.50
19385;DHT22;9828;54.122;17.974;2023-12-28T20:43:11;6.50;1.00
19385;DHT22;9828;54.122;17.974;2023-12-28T20:48:32;6.60;1.00
19385;DHT22;9828;54.122;17.974;2023-12-28T20:53:54;6.60;1.00
19385;DHT22;9828;54.122;17.974;2023-12-28T20:59:15;6.60;99.90
19385;DHT22;9828;54.122;17.974;2023-12-28T21:04:37;6.60;1.00
19385;DHT22;9828;54.122;17.974;2023-12-28T21:09:59;6.60;1.00
19385;DHT22;9828;54.122;17.974;2023-12-28T21:15:20;6.50;99.90
19385;DHT22;9828;54.122;17.974;2023-12-28T21:20:42;6.50;99.90
19385;DHT22;9828;54.122;17.974;2023-12-28T21:26:08;6.50;99.90
19385;DHT22;9828;54.122;17.974;2023-12-28T21:31:30;6.50;1.00
19385;DHT22;9828;54.122;17.974;2023-12-28T21:36:52;6.50;95.30
19385;DHT22;9828;54.122;17.974;2023-12-28T21:42:13;6.50;99.90
19385;DHT22;9828;54.122;17.974;2023-12-28T21:47:35;6.50;99.90
19385;DHT22;9828;54.122;17.974;2023-12-28T21:52:56;6.50;99.90
19385;DHT22;9828;54.122;17.974;2023-12-28T21:58:18;6.50;1.00
19385;DHT22;9828;54.122;17.974;2023-12-28T22:03:39;6.40;99.90
19385;DHT22;9828;54.122;17.974;2023-12-28T22:09:00;6.50;1.00
19385;DHT22;9828;54.122;17.974;2023-12-28T22:14:21;6.30;1.00
19385;DHT22;9828;54.122;17.974;2023-12-28T22:19:43;6.30;1.00
19385;DHT22;9828;54.122;17.974;2023-12-28T22:25:05;6.10;1.00
19385;DHT22;9828;54.122;17.974;2023-12-28T22:30:26;6.10;1.00
19385;DHT22;9828;54.122;17.974;2023-12-28T22:35:47;6.10;1.00
19385;DHT22;9828;54.122;17.974;2023-12-28T22:41:09;6.20;99.90
19385;DHT22;9828;54.122;17.974;2023-12-28T22:46:31;6.20;1.50
19385;DHT22;9828;54.122;17.974;2023-12-28T22:51:52;6.20;1.00
19385;DHT22;9828;54.122;17.974;2023-12-28T22:57:22;6.20;1.00
19385;DHT22;9828;54.122;17.974;2023-12-28T23:02:43;6.20;1.00
19385;DHT22;9828;54.122;17.974;2023-12-28T23:08:05;6.10;1.00
19385;DHT22;9828;54.122;17.974;2023-12-28T23:13:26;6.10;99.90
19385;DHT22;9828;54.122;17.974;2023-12-28T23:18:48;6.20;14.70
19385;DHT22;9828;54.122;17.974;2023-12-28T23:24:09;6.20;99.90
19385;DHT22;9828;54.122;17.974;2023-12-28T23:29:30;6.20;17.50
19385;DHT22;9828;54.122;17.974;2023-12-28T23:34:52;6.10;1.00
19385;DHT22;9828;54.122;17.974;2023-12-28T23:40:16;6.00;1.00
19385;DHT22;9828;54.122;17.974;2023-12-28T23:45:38;5.90;1.00
19385;DHT22;9828;54.122;17.974;2023-12-28T23:51:00;5.90;99.90
19385;DHT22;9828;54.122;17.974;2023-12-28T23:56:21;5.90;99.90
